Edison, Washington
Current Conditions -  °F | °C
As of 10:35 AM on Tuesday 27 Jan 2015 (Local Time) from KBVS Reporting Station
Overcast Overcast  
Wind Chill: 54°   Ceiling: 3100
Heat Index: 54°   Visibility: 10mi
Dew Point: 48°   Wind: 6mph
Humidity: 82%   Direction: 170°S
Pressure: 30.08"   Gusts: NA
Location:  48.5689°N, 122.407°W
Report Text: KBVS 271835Z AUTO 17005KT 10SM OVC031 12/09 A3008 RMK A01 P000
Loading
Personal Weather Stations






























Interactive Weather Map New forecast layout! Learn more

10-Day Weather Forecast

Advertisements
Track Severe Weather on mobile